createdAt,value
2018-04-10T00:02:13.552Z,14.38
2018-04-10T00:04:41.455Z,14.39
2018-04-10T00:07:09.099Z,14.41
2018-04-10T00:09:36.718Z,14.42
2018-04-10T00:12:04.303Z,14.42
2018-04-10T00:14:32.034Z,14.42
2018-04-10T00:16:59.644Z,14.47
2018-04-10T00:19:27.288Z,14.47
2018-04-10T00:21:55.048Z,14.46
2018-04-10T00:24:22.665Z,14.50
2018-04-10T00:26:50.325Z,14.54
2018-04-10T00:29:17.980Z,14.51
2018-04-10T00:31:45.896Z,14.46
2018-04-10T00:34:13.557Z,14.50
2018-04-10T00:36:41.406Z,14.51
2018-04-10T00:39:09.030Z,14.50
2018-04-10T00:41:36.705Z,14.48
2018-04-10T00:44:04.309Z,14.48
2018-04-10T00:46:31.971Z,14.46
2018-04-10T00:48:59.600Z,14.45
2018-04-10T00:51:27.291Z,14.43
2018-04-10T00:53:55.059Z,14.43
2018-04-10T00:56:22.654Z,14.43
2018-04-10T00:58:50.354Z,14.42
2018-04-10T01:01:18.254Z,14.43
2018-04-10T01:03:45.928Z,14.41
2018-04-10T01:06:13.644Z,14.43
2018-04-10T01:08:41.229Z,14.43
2018-04-10T01:11:08.854Z,14.43
2018-04-10T01:13:36.826Z,14.42
2018-04-10T01:16:04.472Z,14.41
2018-04-10T01:18:32.504Z,14.41
2018-04-10T01:21:00.152Z,14.42
2018-04-10T01:23:27.921Z,14.43
2018-04-10T01:25:55.665Z,14.44
2018-04-10T01:28:23.540Z,14.42
2018-04-10T01:30:51.538Z,14.43
2018-04-10T01:33:19.175Z,14.44
2018-04-10T01:35:46.812Z,14.42
2018-04-10T01:38:14.462Z,14.40
2018-04-10T01:40:42.400Z,14.39
2018-04-10T01:43:10.053Z,14.36
2018-04-10T01:45:37.675Z,14.34
2018-04-10T01:48:05.295Z,14.34
2018-04-10T01:50:33.023Z,14.34
2018-04-10T01:53:01.069Z,14.33
2018-04-10T01:55:28.724Z,14.34
2018-04-10T01:57:56.334Z,14.33
2018-04-10T02:00:23.947Z,14.38
2018-04-10T02:02:51.581Z,14.37
2018-04-10T02:05:19.215Z,14.35
2018-04-10T02:07:47.089Z,14.36
2018-04-10T02:10:32.056Z,14.40
2018-04-10T02:12:59.873Z,14.42
2018-04-10T02:15:27.530Z,14.44
2018-04-10T02:17:55.179Z,14.47
2018-04-10T02:20:22.787Z,14.51
2018-04-10T02:22:50.378Z,14.52
2018-04-10T02:25:18.030Z,14.52
2018-04-10T02:27:45.739Z,14.54
2018-04-10T02:30:13.514Z,14.55
2018-04-10T02:32:41.137Z,14.54
2018-04-10T02:35:08.750Z,14.52
2018-04-10T02:37:36.515Z,14.53
2018-04-10T02:40:04.145Z,14.52
2018-04-10T02:42:31.948Z,14.54
2018-04-10T02:44:59.616Z,14.56
2018-04-10T02:47:27.301Z,14.58
2018-04-10T02:49:55.034Z,14.57
2018-04-10T02:52:22.704Z,14.56
2018-04-10T02:54:50.317Z,14.56
2018-04-10T02:57:17.972Z,14.54
2018-04-10T02:59:45.604Z,14.52
2018-04-10T03:02:13.236Z,14.49
2018-04-10T03:04:41.121Z,14.50
2018-04-10T03:07:08.835Z,14.51
2018-04-10T03:09:36.520Z,14.47
2018-04-10T03:12:04.263Z,14.45
2018-04-10T03:14:31.923Z,14.44
2018-04-10T03:16:59.543Z,14.44
2018-04-10T03:19:27.260Z,14.40
2018-04-10T03:21:54.948Z,14.39
2018-04-10T03:24:22.557Z,14.37
2018-04-10T03:26:50.266Z,14.39
2018-04-10T03:29:17.867Z,14.39
2018-04-10T03:31:45.833Z,14.37
2018-04-10T03:34:13.629Z,14.36
2018-04-10T03:36:41.260Z,14.34
2018-04-10T03:39:08.956Z,14.32
2018-04-10T03:41:36.615Z,14.33
2018-04-10T03:44:04.281Z,14.31
2018-04-10T03:46:31.964Z,14.31
2018-04-10T03:48:59.589Z,14.26
2018-04-10T03:51:27.201Z,14.24
2018-04-10T03:53:54.845Z,14.24
2018-04-10T03:56:22.770Z,14.21
2018-04-10T03:58:50.407Z,14.20
2018-04-10T04:01:18.023Z,14.20
2018-04-10T04:03:45.695Z,14.18
2018-04-10T04:06:13.419Z,14.17
2018-04-10T04:08:41.033Z,14.17
2018-04-10T04:11:08.619Z,14.14
2018-04-10T04:13:36.248Z,14.14
2018-04-10T04:16:03.962Z,14.11
2018-04-10T04:18:43.286Z,14.09
2018-04-10T04:21:22.641Z,14.07
2018-04-10T04:23:50.605Z,14.05
2018-04-10T04:26:18.677Z,14.06
2018-04-10T04:28:46.293Z,14.04
2018-04-10T04:31:13.922Z,13.99
2018-04-10T04:33:41.665Z,13.97
2018-04-10T04:36:09.333Z,13.96
2018-04-10T04:38:37.292Z,13.95
2018-04-10T04:41:04.993Z,13.92
2018-04-10T04:43:32.703Z,13.89
2018-04-10T04:46:00.374Z,13.81
2018-04-10T04:48:28.306Z,13.79
2018-04-10T04:50:55.894Z,13.77
2018-04-10T04:53:23.609Z,13.78
2018-04-10T04:55:51.472Z,13.77
2018-04-10T04:58:19.127Z,13.76
2018-04-10T05:00:46.770Z,13.72
2018-04-10T05:03:14.375Z,13.73
2018-04-10T05:05:41.985Z,13.70
2018-04-10T05:08:09.734Z,13.70
2018-04-10T05:10:37.362Z,13.70
2018-04-10T05:13:04.994Z,13.68
2018-04-10T05:15:32.579Z,13.69
2018-04-10T05:18:00.221Z,13.68
2018-04-10T05:20:27.824Z,13.68
2018-04-10T05:22:55.707Z,13.69
2018-04-10T05:25:23.360Z,13.69
2018-04-10T05:27:51.180Z,13.67
2018-04-10T05:30:18.849Z,13.69
2018-04-10T05:32:46.439Z,13.70
2018-04-10T05:35:14.074Z,13.71
2018-04-10T05:37:41.732Z,13.70
2018-04-10T05:40:09.336Z,13.69
2018-04-10T05:42:37.338Z,13.70
2018-04-10T05:45:04.967Z,13.72
2018-04-10T05:47:32.561Z,13.71
2018-04-10T05:50:00.541Z,13.72
2018-04-10T05:52:35.722Z,13.72
2018-04-10T05:55:03.379Z,13.72
2018-04-10T05:57:31.106Z,13.70
2018-04-10T05:59:58.832Z,13.72
2018-04-10T06:02:26.442Z,13.73
2018-04-10T06:04:54.039Z,13.75
2018-04-10T06:07:21.660Z,13.76
2018-04-10T06:09:49.347Z,13.79
2018-04-10T06:12:16.948Z,13.82
2018-04-10T06:14:44.939Z,13.83
2018-04-10T06:17:12.573Z,13.88
2018-04-10T06:19:40.183Z,13.95
2018-04-10T06:22:08.096Z,13.95
2018-04-10T06:24:35.689Z,13.97
2018-04-10T06:27:03.458Z,13.99
2018-04-10T06:29:31.412Z,14.01
2018-04-10T06:31:59.494Z,14.03
2018-04-10T06:34:27.097Z,14.09
2018-04-10T06:36:54.744Z,14.11
2018-04-10T06:39:22.346Z,14.16
2018-04-10T06:41:49.985Z,14.20
2018-04-10T06:44:17.722Z,14.23
2018-04-10T06:46:45.394Z,14.28
2018-04-10T06:49:12.992Z,14.35
2018-04-10T06:51:40.621Z,14.41
2018-04-10T06:54:08.223Z,14.47
2018-04-10T06:56:35.839Z,14.56
2018-04-10T06:59:03.585Z,14.63
2018-04-10T07:01:31.223Z,14.72
2018-04-10T07:04:03.622Z,14.81
2018-04-10T07:06:31.325Z,14.93
2018-04-10T07:08:59.035Z,15.02
2018-04-10T07:11:26.642Z,15.14
2018-04-10T07:13:54.635Z,15.28
2018-04-10T07:16:22.639Z,15.39
2018-04-10T07:18:50.242Z,15.48
2018-04-10T07:21:17.891Z,15.57
2018-04-10T07:23:45.514Z,15.68
2018-04-10T07:26:13.107Z,15.79
2018-04-10T07:28:40.754Z,15.89
2018-04-10T07:31:08.538Z,15.97
2018-04-10T07:33:36.136Z,16.07
2018-04-10T07:36:04.039Z,16.17
2018-04-10T07:38:31.651Z,16.25
2018-04-10T07:40:59.269Z,16.39
2018-04-10T07:43:26.951Z,16.53
2018-04-10T07:45:54.531Z,16.64
2018-04-10T07:48:22.114Z,16.80
2018-04-10T07:50:49.808Z,16.88
2018-04-10T07:53:17.434Z,16.99
2018-04-10T07:55:45.014Z,17.12
2018-04-10T07:58:12.641Z,17.25
2018-04-10T08:00:40.285Z,17.41
2018-04-10T08:03:07.865Z,17.43
2018-04-10T08:05:35.480Z,17.56
2018-04-10T08:08:03.144Z,17.72
2018-04-10T08:10:30.761Z,17.90
2018-04-10T08:12:58.665Z,18.00
2018-04-10T08:15:26.637Z,18.14
2018-04-10T08:17:54.257Z,18.27
2018-04-10T08:20:21.899Z,18.40
2018-04-10T08:22:49.491Z,18.53
2018-04-10T08:25:17.101Z,18.70
2018-04-10T08:27:44.747Z,18.84
2018-04-10T08:30:12.611Z,18.95
2018-04-10T08:32:40.229Z,19.07
2018-04-10T08:35:07.887Z,19.16
2018-04-10T08:37:35.486Z,19.28
2018-04-10T08:40:03.151Z,19.35
2018-04-10T08:42:31.052Z,19.43
2018-04-10T08:44:58.723Z,19.51
2018-04-10T08:47:26.308Z,19.62
2018-04-10T08:49:53.943Z,19.62
2018-04-10T08:52:21.534Z,19.73
2018-04-10T08:54:49.207Z,19.89
2018-04-10T08:57:16.798Z,20.04
2018-04-10T08:59:44.393Z,20.14
2018-04-10T09:02:12.028Z,20.24
2018-04-10T09:04:39.662Z,20.35
2018-04-10T09:07:07.306Z,20.47
2018-04-10T09:09:34.892Z,20.62
2018-04-10T09:12:02.760Z,20.72
2018-04-10T09:14:30.352Z,20.77
2018-04-10T09:16:57.991Z,20.92
2018-04-10T09:19:25.662Z,20.96
2018-04-10T09:21:53.347Z,21.06
2018-04-10T09:24:20.945Z,21.15
2018-04-10T09:26:48.857Z,21.24
2018-04-10T09:29:17.381Z,21.30
2018-04-10T09:31:48.332Z,21.36
2018-04-10T09:34:15.965Z,21.36
2018-04-10T09:36:43.557Z,21.45
2018-04-10T09:39:11.188Z,21.34
2018-04-10T09:41:38.774Z,21.45
2018-04-10T09:44:06.388Z,21.55
2018-04-10T09:46:34.082Z,21.63
2018-04-10T09:49:02.043Z,21.73
2018-04-10T09:51:29.714Z,21.75
2018-04-10T09:53:57.331Z,21.91
2018-04-10T09:56:25.048Z,21.98
2018-04-10T09:58:52.701Z,22.06
2018-04-10T10:01:20.291Z,22.13
2018-04-10T10:03:47.967Z,22.27
2018-04-10T10:06:15.659Z,22.42
2018-04-10T10:08:43.263Z,22.61
2018-04-10T10:11:11.358Z,22.77
2018-04-10T10:13:39.055Z,22.76
2018-04-10T10:16:06.641Z,22.83
2018-04-10T10:18:34.285Z,22.89
2018-04-10T10:21:01.943Z,23.10
2018-04-10T10:23:29.592Z,23.21
2018-04-10T10:25:57.186Z,23.37
2018-04-10T10:28:24.800Z,23.56
2018-04-10T10:30:52.651Z,23.73
2018-04-10T10:33:20.250Z,23.77
2018-04-10T10:35:47.878Z,23.88
2018-04-10T10:38:15.494Z,23.97
2018-04-10T10:40:43.073Z,24.07
2018-04-10T10:43:10.724Z,24.19
2018-04-10T10:45:38.402Z,24.33
2018-04-10T10:48:06.002Z,24.37
2018-04-10T10:50:33.634Z,24.35
2018-04-10T10:53:01.240Z,24.27
2018-04-10T10:55:29.234Z,24.31
2018-04-10T10:57:56.829Z,24.34
2018-04-10T11:00:24.831Z,24.48
2018-04-10T11:02:52.448Z,24.48
2018-04-10T11:05:20.088Z,24.50
2018-04-10T11:07:48.048Z,24.67
2018-04-10T11:10:15.696Z,24.90
2018-04-10T11:12:43.284Z,25.22
2018-04-10T11:15:10.920Z,25.38
2018-04-10T11:17:38.562Z,25.47
2018-04-10T11:20:06.311Z,25.63
2018-04-10T11:22:33.904Z,25.77
2018-04-10T11:25:01.963Z,25.83
2018-04-10T11:27:30.243Z,25.83
2018-04-10T11:29:57.888Z,25.91
2018-04-10T11:32:25.558Z,25.98
2018-04-10T11:34:53.280Z,25.95
2018-04-10T11:37:20.894Z,26.21
2018-04-10T11:39:48.497Z,26.26
2018-04-10T11:42:16.420Z,26.22
2018-04-10T11:44:44.105Z,26.22
2018-04-10T11:47:11.759Z,26.20
2018-04-10T11:49:39.358Z,26.17
2018-04-10T11:52:06.984Z,26.03
2018-04-10T11:54:34.838Z,26.00
2018-04-10T11:57:02.698Z,26.22
2018-04-10T11:59:30.407Z,26.53
2018-04-10T12:01:58.019Z,26.41
2018-04-10T12:04:26.004Z,26.51
2018-04-10T12:06:53.966Z,26.65
2018-04-10T12:09:21.618Z,26.81
2018-04-10T12:11:49.493Z,27.05
2018-04-10T12:14:17.077Z,27.32
2018-04-10T12:16:44.704Z,27.57
2018-04-10T12:19:12.324Z,27.62
2018-04-10T12:21:40.024Z,27.79
2018-04-10T12:24:07.905Z,27.48
2018-04-10T12:26:35.929Z,27.47
2018-04-10T12:29:03.530Z,27.47
2018-04-10T12:31:31.185Z,27.53
2018-04-10T12:33:58.844Z,27.62
2018-04-10T12:36:26.437Z,27.83
2018-04-10T12:38:54.037Z,28.00
2018-04-10T12:41:21.648Z,27.94
2018-04-10T12:43:49.263Z,27.90
2018-04-10T12:46:16.892Z,27.87
2018-04-10T12:48:44.827Z,28.02
2018-04-10T12:51:12.425Z,28.43
2018-04-10T12:53:40.043Z,28.54
2018-04-10T12:56:07.700Z,28.45
2018-04-10T12:58:35.338Z,28.04
2018-04-10T13:01:03.205Z,28.07
2018-04-10T13:03:30.783Z,27.96
2018-04-10T13:05:58.438Z,27.85
2018-04-10T13:08:26.391Z,27.87
2018-04-10T13:10:54.006Z,27.96
2018-04-10T13:13:21.648Z,28.13
2018-04-10T13:15:49.636Z,28.07
2018-04-10T13:18:17.493Z,28.09
2018-04-10T13:20:45.114Z,28.02
2018-04-10T13:23:12.730Z,27.90
2018-04-10T13:25:40.697Z,28.01
2018-04-10T13:28:08.306Z,27.98
2018-04-10T13:30:36.003Z,27.94
2018-04-10T13:33:03.672Z,27.85
2018-04-10T13:35:31.302Z,27.81
2018-04-10T13:37:59.128Z,27.66
2018-04-10T13:40:26.741Z,27.81
2018-04-10T13:42:54.415Z,27.92
2018-04-10T13:45:22.047Z,27.91
2018-04-10T13:47:49.766Z,27.98
2018-04-10T13:50:17.383Z,28.11
2018-04-10T13:52:45.032Z,28.11
2018-04-10T13:55:12.622Z,28.11
2018-04-10T13:57:40.463Z,28.08
2018-04-10T14:00:08.098Z,27.81
2018-04-10T14:02:35.739Z,27.80
2018-04-10T14:05:03.400Z,27.81
2018-04-10T14:07:31.035Z,27.85
2018-04-10T14:09:58.639Z,27.94
2018-04-10T14:12:26.647Z,27.95
2018-04-10T14:14:54.298Z,28.09
2018-04-10T14:17:22.017Z,28.03
2018-04-10T14:19:49.678Z,28.13
2018-04-10T14:22:17.338Z,28.19
2018-04-10T14:24:44.953Z,28.13
2018-04-10T14:27:12.580Z,27.99
2018-04-10T14:29:40.198Z,28.06
2018-04-10T14:32:07.865Z,28.09
2018-04-10T14:34:35.534Z,28.29
2018-04-10T14:37:03.314Z,28.29
2018-04-10T14:39:31.008Z,28.02
2018-04-10T14:41:58.655Z,27.94
2018-04-10T14:44:26.344Z,27.76
2018-04-10T14:46:58.081Z,27.80
2018-04-10T14:49:29.507Z,28.00
2018-04-10T14:51:57.551Z,28.07
2018-04-10T14:54:25.144Z,28.17
2018-04-10T14:56:53.006Z,27.97
2018-04-10T14:59:20.651Z,27.92
2018-04-10T15:01:48.293Z,27.78
2018-04-10T15:04:15.907Z,27.76
2018-04-10T15:06:43.556Z,27.92
2018-04-10T15:09:11.167Z,28.06
2018-04-10T15:11:38.881Z,27.59
2018-04-10T15:14:06.470Z,27.67
2018-04-10T15:16:34.480Z,27.54
2018-04-10T15:19:02.169Z,27.34
2018-04-10T15:21:29.770Z,27.20
2018-04-10T15:23:57.488Z,27.16
2018-04-10T15:26:25.135Z,27.15
2018-04-10T15:28:52.732Z,27.28
2018-04-10T15:31:20.339Z,27.43
2018-04-10T15:33:48.018Z,27.37
2018-04-10T15:36:15.683Z,27.14
2018-04-10T15:38:43.796Z,27.19
2018-04-10T15:41:11.395Z,27.15
2018-04-10T15:43:39.005Z,27.09
2018-04-10T15:46:06.720Z,27.00
2018-04-10T15:48:34.426Z,26.66
2018-04-10T15:51:02.043Z,26.23
2018-04-10T15:53:29.733Z,26.20
2018-04-10T15:55:57.367Z,25.91
2018-04-10T15:58:24.990Z,25.70
2018-04-10T16:00:52.869Z,25.51
2018-04-10T16:03:20.641Z,25.55
2018-04-10T16:05:48.226Z,25.60
2018-04-10T16:08:15.870Z,25.64
2018-04-10T16:10:43.533Z,25.53
2018-04-10T16:13:11.132Z,25.38
2018-04-10T16:15:38.835Z,25.22
2018-04-10T16:18:06.496Z,25.13
2018-04-10T16:20:34.096Z,25.10
2018-04-10T16:23:01.706Z,24.93
2018-04-10T16:25:29.425Z,24.74
2018-04-10T16:27:57.033Z,24.43
2018-04-10T16:30:24.630Z,24.28
2018-04-10T16:32:52.313Z,24.06
2018-04-10T16:35:19.917Z,23.78
2018-04-10T16:37:47.664Z,23.62
2018-04-10T16:40:15.604Z,23.48
2018-04-10T16:42:43.518Z,23.51
2018-04-10T16:45:11.152Z,23.33
2018-04-10T16:47:38.761Z,23.33
2018-04-10T16:50:06.757Z,23.17
2018-04-10T16:52:34.692Z,23.13
2018-04-10T16:55:02.291Z,22.96
2018-04-10T16:57:29.913Z,22.91
2018-04-10T16:59:57.520Z,22.85
2018-04-10T17:02:25.233Z,22.82
2018-04-10T17:04:52.832Z,22.72
2018-04-10T17:07:20.483Z,22.60
2018-04-10T17:09:48.184Z,22.37
2018-04-10T17:12:15.792Z,22.27
2018-04-10T17:14:43.490Z,22.15
2018-04-10T17:17:11.180Z,22.06
2018-04-10T17:19:38.779Z,22.02
2018-04-10T17:22:06.655Z,21.90
2018-04-10T17:24:34.304Z,21.72
2018-04-10T17:27:01.925Z,21.51
2018-04-10T17:29:29.547Z,21.21
2018-04-10T17:31:58.176Z,20.87
2018-04-10T17:34:25.839Z,20.84
2018-04-10T17:36:53.447Z,20.77
2018-04-10T17:39:21.160Z,20.67
2018-04-10T17:41:48.835Z,20.61
2018-04-10T17:44:16.521Z,20.50
2018-04-10T17:46:44.290Z,20.37
2018-04-10T17:49:11.891Z,20.18
2018-04-10T17:51:39.589Z,20.05
2018-04-10T17:54:07.328Z,19.90
2018-04-10T17:56:34.971Z,19.93
2018-04-10T17:59:02.575Z,19.87
2018-04-10T18:01:30.282Z,19.68
2018-04-10T18:03:57.972Z,19.62
2018-04-10T18:06:25.579Z,19.58
2018-04-10T18:08:53.225Z,19.42
2018-04-10T18:11:20.808Z,19.26
2018-04-10T18:13:50.895Z,18.96
2018-04-10T18:16:18.487Z,18.94
2018-04-10T18:18:46.343Z,18.88
2018-04-10T18:21:14.114Z,18.90
2018-04-10T18:23:41.936Z,18.84
2018-04-10T18:26:09.619Z,18.72
2018-04-10T18:28:37.325Z,18.66
2018-04-10T18:31:04.941Z,18.62
2018-04-10T18:33:32.527Z,18.51
2018-04-10T18:36:00.191Z,18.43
2018-04-10T18:38:27.822Z,18.28
2018-04-10T18:40:55.485Z,18.19
2018-04-10T18:43:23.087Z,18.13
2018-04-10T18:45:51.036Z,18.00
2018-04-10T18:48:18.636Z,17.90
2018-04-10T18:50:46.297Z,17.81
2018-04-10T18:53:14.010Z,17.68
2018-04-10T18:55:41.630Z,17.57
2018-04-10T18:58:09.256Z,17.43
2018-04-10T19:00:36.846Z,17.39
2018-04-10T19:03:04.884Z,17.32
2018-04-10T19:05:32.478Z,17.17
2018-04-10T19:08:00.095Z,17.13
2018-04-10T19:10:27.745Z,17.12
2018-04-10T19:12:55.392Z,17.10
2018-04-10T19:15:23.070Z,16.95
2018-04-10T19:17:50.770Z,16.93
2018-04-10T19:20:18.718Z,16.76
2018-04-10T19:22:46.363Z,16.70
2018-04-10T19:25:13.975Z,16.70
2018-04-10T19:27:42.010Z,16.69
2018-04-10T19:30:09.612Z,16.71
2018-04-10T19:32:37.218Z,16.61
2018-04-10T19:35:04.886Z,16.47
2018-04-10T19:37:32.769Z,16.35
2018-04-10T19:40:00.356Z,16.25
2018-04-10T19:42:27.976Z,16.18
2018-04-10T19:44:55.590Z,16.08
2018-04-10T19:47:23.243Z,16.01
2018-04-10T19:49:50.919Z,16.02
2018-04-10T19:52:19.870Z,15.82
2018-04-10T19:54:47.843Z,15.80
2018-04-10T19:57:15.905Z,15.76
2018-04-10T19:59:43.639Z,15.79
2018-04-10T20:02:11.713Z,15.73
2018-04-10T20:04:39.294Z,15.61
2018-04-10T20:07:06.881Z,15.55
2018-04-10T20:09:34.551Z,15.47
2018-04-10T20:12:02.207Z,15.48
2018-04-10T20:14:30.159Z,15.46
2018-04-10T20:16:57.878Z,15.47
2018-04-10T20:19:25.550Z,15.39
2018-04-10T20:21:53.147Z,15.25
2018-04-10T20:24:21.046Z,15.21
2018-04-10T20:26:48.642Z,15.07
2018-04-10T20:29:16.221Z,14.85
2018-04-10T20:31:43.849Z,14.67
2018-04-10T20:34:11.464Z,14.65
2018-04-10T20:36:39.429Z,14.58
2018-04-10T20:39:07.058Z,14.57
2018-04-10T20:41:35.573Z,14.47
2018-04-10T20:44:03.520Z,14.45
2018-04-10T20:46:31.121Z,14.46
2018-04-10T20:48:58.770Z,14.42
2018-04-10T20:51:26.419Z,14.26
2018-04-10T20:53:54.413Z,14.14
2018-04-10T20:56:22.001Z,14.00
2018-04-10T20:58:49.599Z,13.96
2018-04-10T21:01:17.283Z,13.85
2018-04-10T21:03:45.135Z,13.81
2018-04-10T21:06:12.750Z,13.79
2018-04-10T21:08:40.357Z,13.64
2018-04-10T21:11:07.993Z,13.56
2018-04-10T21:13:36.592Z,13.53
2018-04-10T21:16:04.283Z,13.50
2018-04-10T21:18:31.870Z,13.37
2018-04-10T21:20:59.484Z,13.33
2018-04-10T21:23:27.171Z,13.27
2018-04-10T21:25:55.086Z,13.19
2018-04-10T21:28:22.676Z,13.16
2018-04-10T21:30:50.368Z,12.94
2018-04-10T21:33:18.390Z,12.89
2018-04-10T21:35:46.014Z,12.90
2018-04-10T21:38:13.598Z,12.87
2018-04-10T21:40:41.229Z,12.83
2018-04-10T21:43:14.438Z,12.61
2018-04-10T21:45:42.705Z,12.60
2018-04-10T21:48:10.320Z,12.51
2018-04-10T21:50:37.955Z,12.49
2018-04-10T21:53:05.652Z,12.45
2018-04-10T21:55:33.626Z,12.43
2018-04-10T21:58:01.323Z,12.47
2018-04-10T22:00:29.072Z,12.46
2018-04-10T22:02:56.686Z,12.46
2018-04-10T22:05:24.567Z,12.35
2018-04-10T22:07:52.216Z,12.26
2018-04-10T22:10:19.803Z,12.21
2018-04-10T22:12:47.463Z,12.23
2018-04-10T22:15:15.063Z,12.16
2018-04-10T22:17:42.659Z,12.14
2018-04-10T22:20:10.504Z,12.03
2018-04-10T22:22:43.577Z,11.88
2018-04-10T22:25:11.451Z,11.74
2018-04-10T22:27:39.148Z,11.70
2018-04-10T22:30:06.750Z,11.69
2018-04-10T22:32:34.350Z,11.63
2018-04-10T22:35:01.969Z,11.48
2018-04-10T22:37:29.625Z,11.55
2018-04-10T22:39:57.233Z,11.55
2018-04-10T22:42:24.971Z,11.49
2018-04-10T22:44:52.671Z,11.50
2018-04-10T22:47:20.301Z,11.46
2018-04-10T22:49:48.327Z,11.36
2018-04-10T22:52:15.993Z,11.35
2018-04-10T22:54:43.949Z,11.36
2018-04-10T22:57:11.582Z,11.37
2018-04-10T22:59:39.193Z,11.39
2018-04-10T23:02:06.857Z,11.34
2018-04-10T23:04:34.457Z,11.21
2018-04-10T23:07:02.062Z,11.22
2018-04-10T23:09:29.944Z,11.12
2018-04-10T23:11:57.923Z,11.15
2018-04-10T23:14:25.735Z,11.12
2018-04-10T23:16:53.676Z,11.02
2018-04-10T23:19:21.630Z,11.01
2018-04-10T23:21:49.242Z,10.89
2018-04-10T23:24:16.980Z,10.92
2018-04-10T23:26:44.726Z,10.89
2018-04-10T23:29:12.591Z,10.82
2018-04-10T23:31:40.377Z,10.84
2018-04-10T23:34:08.103Z,10.86
2018-04-10T23:36:35.818Z,10.74
2018-04-10T23:39:03.508Z,10.63
2018-04-10T23:41:31.275Z,10.67
2018-04-10T23:43:59.396Z,10.71
2018-04-10T23:46:27.189Z,10.73
2018-04-10T23:48:54.932Z,10.63
2018-04-10T23:51:22.562Z,10.66
2018-04-10T23:53:50.178Z,10.69
2018-04-10T23:56:17.872Z,10.62
2018-04-10T23:58:45.593Z,10.53
